Nord Innovation — 3EYC5 — position and weather

sailwx.info

Track history (hours):
 
Tides and Currents Weather Stations Pressure Air Temp Water Temp Dewpoint Dewpoint Depression Visibility Wind Speed Wind Dir Waves Ship Positions

Nord Innovation

Last reported at 2017-Nov-11 12:23 UTC. Time now 2017-Nov-20 02:16 UTC.
Position N 01°14' E 103°58'.
Warning: this ship's position is 8 days out of date.

Length 180 m; draft 7.8 m.

Type: Tanker. MMSI: 370756000.

Date/timePositionNaut miles runAvg speedWind from/ knotsBaromVisibWave heightAir tempDewpointWater temp
2017-Nov-11 12:23N 01°14' E 103°58'4 9.9
2017-Nov-11 12:01N 01°14' E 103°55'1 2.0
2017-Nov-11 11:30N 01°15' E 103°55'0 0.1
2017-Nov-11 10:55N 01°15' E 103°55'0 0.0
2017-Nov-11 10:25N 01°15' E 103°55'0 0.0
2017-Nov-11 09:55N 01°15' E 103°55'0 0.0
2017-Nov-11 09:19N 01°15' E 103°55'0 0.0
2017-Nov-11 08:55N 01°15' E 103°55'0 0.0
2017-Nov-11 08:25N 01°15' E 103°55'0 0.0
2017-Nov-11 07:58N 01°15' E 103°55'0 0.2
2017-Nov-11 07:25N 01°15' E 103°55'0 0.0
2017-Nov-11 06:58N 01°15' E 103°55'0 0.1
2017-Nov-11 06:25N 01°15' E 103°55'0 0.0
2017-Nov-11 05:58N 01°15' E 103°55'0 0.1
2017-Nov-11 05:25N 01°15' E 103°55'0 0.1
2017-Nov-11 04:55N 01°15' E 103°55'0 0.1
2017-Nov-11 04:25N 01°15' E 103°55'0 0.3
2017-Nov-11 03:58N 01°15' E 103°55'0 0.0
2017-Nov-11 03:25N 01°15' E 103°55'0 0.0
2017-Nov-11 02:58N 01°15' E 103°55'0 0.0
2017-Nov-11 02:28N 01°15' E 103°55'0 0.0
2017-Nov-11 01:55N 01°15' E 103°55'0 0.0
2017-Nov-11 01:28N 01°15' E 103°55'0 0.0
2017-Nov-11 00:49N 01°15' E 103°55'0 0.0
2017-Nov-11 00:25N 01°15' E 103°55'0 0.0
2017-Nov-10 23:49N 01°15' E 103°55'0 0.0
2017-Nov-10 23:13N 01°15' E 103°55'0 0.2
2017-Nov-10 22:58N 01°15' E 103°55'0 0.0
2017-Nov-10 22:28N 01°15' E 103°55'0 0.1
2017-Nov-10 21:55N 01°15' E 103°55'0 0.1
2017-Nov-10 21:25N 01°15' E 103°55'0 0.0
2017-Nov-10 20:58N 01°15' E 103°55'0 0.1
2017-Nov-10 20:28N 01°15' E 103°55'0 0.1
2017-Nov-10 19:37N 01°15' E 103°55'0 0.1
2017-Nov-10 19:19N 01°15' E 103°55'0 0.2
2017-Nov-10 18:55N 01°15' E 103°55'0 0.0
2017-Nov-10 18:25N 01°15' E 103°55'0 0.0
2017-Nov-10 17:55N 01°15' E 103°55'0 0.1
2017-Nov-10 17:07N 01°15' E 103°55'0 0.2
2017-Nov-10 16:46N 01°15' E 103°55'0 0.0
2017-Nov-10 16:22N 01°15' E 103°55'0 0.0
2017-Nov-10 15:58N 01°15' E 103°55'0 0.1
2017-Nov-10 15:28N 01°15' E 103°55'0 0.0
2017-Nov-10 14:58N 01°15' E 103°55'0 0.0
2017-Nov-10 14:19N 01°15' E 103°55'0 0.0
2017-Nov-10 13:58N 01°15' E 103°55'0 0.0
2017-Nov-10 13:19N 01°15' E 103°55'0 0.0
2017-Nov-10 12:55N 01°15' E 103°55'0 0.0
2017-Nov-10 12:25N 01°15' E 103°55'0 0.0
2017-Nov-10 11:55N 01°15' E 103°55'0 0.0
2017-Nov-10 11:25N 01°15' E 103°55'0 0.0
2017-Nov-10 10:52N 01°15' E 103°55'0 0.0
2017-Nov-10 10:25N 01°15' E 103°55'1 2.0
2017-Nov-10 10:00N 01°15' E 103°55'3 6.1
2017-Nov-10 09:30N 01°16' E 103°58'2 3.3
2017-Nov-10 09:00N 01°16' E 103°60'1 2.5
2017-Nov-10 08:30N 01°16' E 104°01'2 3.7
2017-Nov-10 07:57N 01°16' E 104°03'3 5.6
2017-Nov-10 07:28N 01°17' E 104°06'4 3.0
2017-Nov-10 06:17N 01°20' E 104°04'6 5.4
2017-Nov-10 05:11N 01°25' E 104°00'2 9.2
2017-Nov-10 04:59N 01°26' E 104°01'2 0.1
2017-Nov-09 00:01N 01°25' E 104°00'1 9.9
2017-Nov-08 23:54N 01°24' E 104°01'4 9.6
2017-Nov-08 23:30N 01°21' E 104°04'3 5.7
2017-Nov-08 23:00N 01°19' E 104°05'6 3.7
2017-Nov-08 21:31N 01°15' E 104°02'0 4.9
2017-Nov-08 21:28N 01°15' E 104°02'2 5.0
2017-Nov-08 20:58N 01°14' E 103°59'3 5.9
2017-Nov-08 20:30N 01°13' E 103°57'2 4.5
2017-Nov-08 20:00N 01°12' E 103°55'3 5.3
2017-Nov-08 19:30N 01°11' E 103°52'3 5.0
2017-Nov-08 19:00N 01°12' E 103°50'2 4.1
2017-Nov-08 18:30N 01°13' E 103°48'0 0.3
2017-Nov-08 17:59N 01°13' E 103°48'0 0.1
2017-Nov-08 17:30N 01°13' E 103°48'0 0.0
2017-Nov-08 17:00N 01°13' E 103°48'0 0.1
2017-Nov-08 16:30N 01°13' E 103°48'0 0.2
2017-Nov-08 16:00N 01°13' E 103°48'0 0.1
2017-Nov-08 15:30N 01°13' E 103°48'0 0.0
2017-Nov-08 15:00N 01°13' E 103°48'0 0.1
2017-Nov-08 14:30N 01°13' E 103°49'0 0.1
2017-Nov-08 14:00N 01°13' E 103°49'0 0.0
2017-Nov-08 13:30N 01°13' E 103°49'0 0.0
2017-Nov-08 13:00N 01°13' E 103°49'0 0.1
2017-Nov-08 12:30N 01°13' E 103°49'0 0.0
2017-Nov-08 12:00N 01°13' E 103°49'0 0.0
2017-Nov-08 11:30N 01°13' E 103°49'0 0.0
2017-Nov-08 11:00N 01°13' E 103°49'0 0.0
2017-Nov-08 10:30N 01°13' E 103°49'0 0.0
2017-Nov-08 10:00N 01°13' E 103°49'0 0.0
2017-Nov-08 09:31N 01°13' E 103°49'0 0.0
2017-Nov-08 09:00N 01°13' E 103°49'0 0.0
2017-Nov-08 08:30N 01°13' E 103°49'0 0.2
2017-Nov-08 08:01N 01°13' E 103°48'1 1.3
2017-Nov-08 07:29N 01°13' E 103°49'511.2
2017-Nov-08 07:01N 01°14' E 103°44'3 4.9
2017-Nov-08 06:28N 01°16' E 103°41'0 0.3
2017-Nov-08 05:58N 01°16' E 103°41'0 0.0
2017-Nov-08 05:28N 01°16' E 103°41'0 0.0
2017-Nov-08 04:58N 01°16' E 103°41'0 0.0
2017-Nov-08 04:28N 01°16' E 103°41'0 0.0
2017-Nov-08 03:58N 01°16' E 103°41'0 0.0
2017-Nov-08 03:28N 01°16' E 103°41'0 0.0
2017-Nov-08 02:55N 01°16' E 103°41'0 0.0
2017-Nov-08 02:28N 01°16' E 103°41'0 0.0
2017-Nov-08 01:58N 01°16' E 103°41'0 0.0
2017-Nov-08 01:28N 01°16' E 103°41'0 0.0
2017-Nov-08 00:58N 01°16' E 103°41'0 0.0
2017-Nov-08 00:28N 01°16' E 103°41'0 0.0
2017-Nov-07 23:58N 01°16' E 103°41'0 0.0
2017-Nov-07 23:28N 01°16' E 103°41'0 0.0
2017-Nov-07 22:58N 01°16' E 103°41'0 0.0
2017-Nov-07 22:28N 01°16' E 103°41'0 0.0
2017-Nov-07 21:58N 01°16' E 103°41'0 0.0
2017-Nov-07 21:28N 01°16' E 103°41'0 0.0
2017-Nov-07 20:58N 01°16' E 103°41'0 0.0
2017-Nov-07 20:28N 01°16' E 103°41'0 0.0
2017-Nov-07 19:55N 01°16' E 103°41'0 0.0
2017-Nov-07 19:28N 01°16' E 103°41'0 0.0
2017-Nov-07 18:58N 01°16' E 103°41'0 0.0
2017-Nov-07 18:28N 01°16' E 103°41'0 0.0
2017-Nov-07 17:58N 01°16' E 103°41'0 0.0
2017-Nov-07 17:28N 01°16' E 103°41'0 0.0
2017-Nov-07 16:55N 01°16' E 103°41'0 0.0
2017-Nov-07 16:22N 01°16' E 103°41'0 0.0
2017-Nov-07 15:58N 01°16' E 103°41'0 0.0
2017-Nov-07 15:22N 01°16' E 103°41'0 0.0
2017-Nov-07 14:58N 01°16' E 103°41'0 0.0
2017-Nov-07 14:22N 01°16' E 103°41'0 0.0
2017-Nov-07 13:55N 01°16' E 103°41'0 0.0
2017-Nov-07 13:25N 01°16' E 103°41'0 0.0
2017-Nov-07 12:58N 01°16' E 103°41'0 0.0
2017-Nov-07 12:28N 01°16' E 103°41'0 0.0
2017-Nov-07 11:52N 01°16' E 103°41'0 0.0
2017-Nov-07 11:28N 01°16' E 103°41'0 0.0
2017-Nov-07 10:58N 01°16' E 103°41'0 0.0
2017-Nov-07 10:28N 01°16' E 103°41'0 0.0
2017-Nov-07 09:59N 01°16' E 103°41'0 0.1
2017-Nov-07 09:31N 01°16' E 103°41'2 3.1
2017-Nov-07 09:00N 01°15' E 103°42'3 6.1
2017-Nov-07 08:31N 01°16' E 103°45'1 2.9
2017-Nov-07 08:00N 01°17' E 103°44'0 0.0
2017-Nov-07 07:30N 01°17' E 103°44'0 0.0
2017-Nov-07 07:00N 01°17' E 103°44'0 0.0
2017-Nov-07 06:30N 01°17' E 103°44'0 0.0
2017-Nov-07 05:54N 01°17' E 103°44'0 0.0
2017-Nov-07 05:30N 01°17' E 103°44'0 0.0
2017-Nov-07 05:00N 01°17' E 103°44'0 0.0
2017-Nov-07 04:28N 01°17' E 103°44'0 0.0
2017-Nov-07 04:01N 01°17' E 103°44'0 0.0
2017-Nov-07 03:30N 01°17' E 103°44'0 0.0
2017-Nov-07 03:01N 01°17' E 103°44'0 0.0
2017-Nov-07 02:27N 01°17' E 103°44'0 0.0
2017-Nov-07 02:01N 01°17' E 103°44'0 0.0
2017-Nov-07 01:30N 01°17' E 103°44'0 0.0
2017-Nov-07 01:01N 01°17' E 103°44'0 0.0
2017-Nov-07 00:31N 01°17' E 103°44'0 0.0
2017-Nov-06 23:57N 01°17' E 103°44'0 0.0
2017-Nov-06 23:27N 01°17' E 103°44'0 0.0
2017-Nov-06 23:00N 01°17' E 103°44'0 0.0
2017-Nov-06 22:30N 01°17' E 103°44'0 0.0
2017-Nov-06 22:00N 01°17' E 103°44'0 0.0
2017-Nov-06 21:30N 01°17' E 103°44'0 0.0
2017-Nov-06 21:00N 01°17' E 103°44'0 0.0
2017-Nov-06 20:30N 01°17' E 103°44'  
Track history (hours):
 
Tides and Currents Weather Stations Pressure Air Temp Water Temp Dewpoint Dewpoint Depression Visibility Wind Speed Wind Dir Waves Ship Positions

Nord Innovation

Last reported at 2017-Nov-11 12:23 UTC. Time now 2017-Nov-20 02:16 UTC.
Position N 01°14' E 103°58'.
Warning: this ship's position is 8 days out of date.

Length 180 m; draft 7.8 m.

Type: Tanker. MMSI: 370756000.

Date/timePositionNaut miles runAvg speedWind from/ knotsBaromVisibWave heightAir tempDewpointWater temp
2017-Nov-11 12:23N 01°14' E 103°58'4 9.9
2017-Nov-11 12:01N 01°14' E 103°55'1 2.0
2017-Nov-11 11:30N 01°15' E 103°55'0 0.1
2017-Nov-11 10:55N 01°15' E 103°55'0 0.0
2017-Nov-11 10:25N 01°15' E 103°55'0 0.0
2017-Nov-11 09:55N 01°15' E 103°55'0 0.0
2017-Nov-11 09:19N 01°15' E 103°55'0 0.0
2017-Nov-11 08:55N 01°15' E 103°55'0 0.0
2017-Nov-11 08:25N 01°15' E 103°55'0 0.0
2017-Nov-11 07:58N 01°15' E 103°55'0 0.2
2017-Nov-11 07:25N 01°15' E 103°55'0 0.0
2017-Nov-11 06:58N 01°15' E 103°55'0 0.1
2017-Nov-11 06:25N 01°15' E 103°55'0 0.0
2017-Nov-11 05:58N 01°15' E 103°55'0 0.1
2017-Nov-11 05:25N 01°15' E 103°55'0 0.1
2017-Nov-11 04:55N 01°15' E 103°55'0 0.1
2017-Nov-11 04:25N 01°15' E 103°55'0 0.3
2017-Nov-11 03:58N 01°15' E 103°55'0 0.0
2017-Nov-11 03:25N 01°15' E 103°55'0 0.0
2017-Nov-11 02:58N 01°15' E 103°55'0 0.0
2017-Nov-11 02:28N 01°15' E 103°55'0 0.0
2017-Nov-11 01:55N 01°15' E 103°55'0 0.0
2017-Nov-11 01:28N 01°15' E 103°55'0 0.0
2017-Nov-11 00:49N 01°15' E 103°55'0 0.0
2017-Nov-11 00:25N 01°15' E 103°55'0 0.0
2017-Nov-10 23:49N 01°15' E 103°55'0 0.0
2017-Nov-10 23:13N 01°15' E 103°55'0 0.2
2017-Nov-10 22:58N 01°15' E 103°55'0 0.0
2017-Nov-10 22:28N 01°15' E 103°55'0 0.1
2017-Nov-10 21:55N 01°15' E 103°55'0 0.1
2017-Nov-10 21:25N 01°15' E 103°55'0 0.0
2017-Nov-10 20:58N 01°15' E 103°55'0 0.1
2017-Nov-10 20:28N 01°15' E 103°55'0 0.1
2017-Nov-10 19:37N 01°15' E 103°55'0 0.1
2017-Nov-10 19:19N 01°15' E 103°55'0 0.2
2017-Nov-10 18:55N 01°15' E 103°55'0 0.0
2017-Nov-10 18:25N 01°15' E 103°55'0 0.0
2017-Nov-10 17:55N 01°15' E 103°55'0 0.1
2017-Nov-10 17:07N 01°15' E 103°55'0 0.2
2017-Nov-10 16:46N 01°15' E 103°55'0 0.0
2017-Nov-10 16:22N 01°15' E 103°55'0 0.0
2017-Nov-10 15:58N 01°15' E 103°55'0 0.1
2017-Nov-10 15:28N 01°15' E 103°55'0 0.0
2017-Nov-10 14:58N 01°15' E 103°55'0 0.0
2017-Nov-10 14:19N 01°15' E 103°55'0 0.0
2017-Nov-10 13:58N 01°15' E 103°55'0 0.0
2017-Nov-10 13:19N 01°15' E 103°55'0 0.0
2017-Nov-10 12:55N 01°15' E 103°55'0 0.0
2017-Nov-10 12:25N 01°15' E 103°55'0 0.0
2017-Nov-10 11:55N 01°15' E 103°55'0 0.0
2017-Nov-10 11:25N 01°15' E 103°55'0 0.0
2017-Nov-10 10:52N 01°15' E 103°55'0 0.0
2017-Nov-10 10:25N 01°15' E 103°55'1 2.0
2017-Nov-10 10:00N 01°15' E 103°55'3 6.1
2017-Nov-10 09:30N 01°16' E 103°58'2 3.3
2017-Nov-10 09:00N 01°16' E 103°60'1 2.5
2017-Nov-10 08:30N 01°16' E 104°01'2 3.7
2017-Nov-10 07:57N 01°16' E 104°03'3 5.6
2017-Nov-10 07:28N 01°17' E 104°06'4 3.0
2017-Nov-10 06:17N 01°20' E 104°04'6 5.4
2017-Nov-10 05:11N 01°25' E 104°00'2 9.2
2017-Nov-10 04:59N 01°26' E 104°01'2 0.1
2017-Nov-09 00:01N 01°25' E 104°00'1 9.9
2017-Nov-08 23:54N 01°24' E 104°01'4 9.6
2017-Nov-08 23:30N 01°21' E 104°04'3 5.7
2017-Nov-08 23:00N 01°19' E 104°05'6 3.7
2017-Nov-08 21:31N 01°15' E 104°02'0 4.9
2017-Nov-08 21:28N 01°15' E 104°02'2 5.0
2017-Nov-08 20:58N 01°14' E 103°59'3 5.9
2017-Nov-08 20:30N 01°13' E 103°57'2 4.5
2017-Nov-08 20:00N 01°12' E 103°55'3 5.3
2017-Nov-08 19:30N 01°11' E 103°52'3 5.0
2017-Nov-08 19:00N 01°12' E 103°50'2 4.1
2017-Nov-08 18:30N 01°13' E 103°48'0 0.3
2017-Nov-08 17:59N 01°13' E 103°48'0 0.1
2017-Nov-08 17:30N 01°13' E 103°48'0 0.0
2017-Nov-08 17:00N 01°13' E 103°48'0 0.1
2017-Nov-08 16:30N 01°13' E 103°48'0 0.2
2017-Nov-08 16:00N 01°13' E 103°48'0 0.1
2017-Nov-08 15:30N 01°13' E 103°48'0 0.0
2017-Nov-08 15:00N 01°13' E 103°48'0 0.1
2017-Nov-08 14:30N 01°13' E 103°49'0 0.1
2017-Nov-08 14:00N 01°13' E 103°49'0 0.0
2017-Nov-08 13:30N 01°13' E 103°49'0 0.0
2017-Nov-08 13:00N 01°13' E 103°49'0 0.1
2017-Nov-08 12:30N 01°13' E 103°49'0 0.0
2017-Nov-08 12:00N 01°13' E 103°49'0 0.0
2017-Nov-08 11:30N 01°13' E 103°49'0 0.0
2017-Nov-08 11:00N 01°13' E 103°49'0 0.0
2017-Nov-08 10:30N 01°13' E 103°49'0 0.0
2017-Nov-08 10:00N 01°13' E 103°49'0 0.0
2017-Nov-08 09:31N 01°13' E 103°49'0 0.0
2017-Nov-08 09:00N 01°13' E 103°49'0 0.0
2017-Nov-08 08:30N 01°13' E 103°49'0 0.2
2017-Nov-08 08:01N 01°13' E 103°48'1 1.3
2017-Nov-08 07:29N 01°13' E 103°49'511.2
2017-Nov-08 07:01N 01°14' E 103°44'3 4.9
2017-Nov-08 06:28N 01°16' E 103°41'0 0.3
2017-Nov-08 05:58N 01°16' E 103°41'0 0.0
2017-Nov-08 05:28N 01°16' E 103°41'0 0.0
2017-Nov-08 04:58N 01°16' E 103°41'0 0.0
2017-Nov-08 04:28N 01°16' E 103°41'0 0.0
2017-Nov-08 03:58N 01°16' E 103°41'0 0.0
2017-Nov-08 03:28N 01°16' E 103°41'0 0.0
2017-Nov-08 02:55N 01°16' E 103°41'0 0.0
2017-Nov-08 02:28N 01°16' E 103°41'0 0.0
2017-Nov-08 01:58N 01°16' E 103°41'0 0.0
2017-Nov-08 01:28N 01°16' E 103°41'0 0.0
2017-Nov-08 00:58N 01°16' E 103°41'0 0.0
2017-Nov-08 00:28N 01°16' E 103°41'0 0.0
2017-Nov-07 23:58N 01°16' E 103°41'0 0.0
2017-Nov-07 23:28N 01°16' E 103°41'0 0.0
2017-Nov-07 22:58N 01°16' E 103°41'0 0.0
2017-Nov-07 22:28N 01°16' E 103°41'0 0.0
2017-Nov-07 21:58N 01°16' E 103°41'0 0.0
2017-Nov-07 21:28N 01°16' E 103°41'0 0.0
2017-Nov-07 20:58N 01°16' E 103°41'0 0.0
2017-Nov-07 20:28N 01°16' E 103°41'0 0.0
2017-Nov-07 19:55N 01°16' E 103°41'0 0.0
2017-Nov-07 19:28N 01°16' E 103°41'0 0.0
2017-Nov-07 18:58N 01°16' E 103°41'0 0.0
2017-Nov-07 18:28N 01°16' E 103°41'0 0.0
2017-Nov-07 17:58N 01°16' E 103°41'0 0.0
2017-Nov-07 17:28N 01°16' E 103°41'0 0.0
2017-Nov-07 16:55N 01°16' E 103°41'0 0.0
2017-Nov-07 16:22N 01°16' E 103°41'0 0.0
2017-Nov-07 15:58N 01°16' E 103°41'0 0.0
2017-Nov-07 15:22N 01°16' E 103°41'0 0.0
2017-Nov-07 14:58N 01°16' E 103°41'0 0.0
2017-Nov-07 14:22N 01°16' E 103°41'0 0.0
2017-Nov-07 13:55N 01°16' E 103°41'0 0.0
2017-Nov-07 13:25N 01°16' E 103°41'0 0.0
2017-Nov-07 12:58N 01°16' E 103°41'0 0.0
2017-Nov-07 12:28N 01°16' E 103°41'0 0.0
2017-Nov-07 11:52N 01°16' E 103°41'0 0.0
2017-Nov-07 11:28N 01°16' E 103°41'0 0.0
2017-Nov-07 10:58N 01°16' E 103°41'0 0.0
2017-Nov-07 10:28N 01°16' E 103°41'0 0.0
2017-Nov-07 09:59N 01°16' E 103°41'0 0.1
2017-Nov-07 09:31N 01°16' E 103°41'2 3.1
2017-Nov-07 09:00N 01°15' E 103°42'3 6.1
2017-Nov-07 08:31N 01°16' E 103°45'1 2.9
2017-Nov-07 08:00N 01°17' E 103°44'0 0.0
2017-Nov-07 07:30N 01°17' E 103°44'0 0.0
2017-Nov-07 07:00N 01°17' E 103°44'0 0.0
2017-Nov-07 06:30N 01°17' E 103°44'0 0.0
2017-Nov-07 05:54N 01°17' E 103°44'0 0.0
2017-Nov-07 05:30N 01°17' E 103°44'0 0.0
2017-Nov-07 05:00N 01°17' E 103°44'0 0.0
2017-Nov-07 04:28N 01°17' E 103°44'0 0.0
2017-Nov-07 04:01N 01°17' E 103°44'0 0.0
2017-Nov-07 03:30N 01°17' E 103°44'0 0.0
2017-Nov-07 03:01N 01°17' E 103°44'0 0.0
2017-Nov-07 02:27N 01°17' E 103°44'0 0.0
2017-Nov-07 02:01N 01°17' E 103°44'0 0.0
2017-Nov-07 01:30N 01°17' E 103°44'0 0.0
2017-Nov-07 01:01N 01°17' E 103°44'0 0.0
2017-Nov-07 00:31N 01°17' E 103°44'0 0.0
2017-Nov-06 23:57N 01°17' E 103°44'0 0.0
2017-Nov-06 23:27N 01°17' E 103°44'0 0.0
2017-Nov-06 23:00N 01°17' E 103°44'0 0.0
2017-Nov-06 22:30N 01°17' E 103°44'0 0.0
2017-Nov-06 22:00N 01°17' E 103°44'0 0.0
2017-Nov-06 21:30N 01°17' E 103°44'0 0.0
2017-Nov-06 21:00N 01°17' E 103°44'0 0.0
2017-Nov-06 20:30N 01°17' E 103°44'  

Dump ship's entire track history